createdAt,value
2024-01-09T00:01:13.899Z,79.69
2024-01-09T00:06:35.756Z,79.27
2024-01-09T00:11:57.723Z,77.77
2024-01-09T00:17:19.583Z,77.94
2024-01-09T00:22:42.356Z,77.44
2024-01-09T00:28:04.432Z,76.52
2024-01-09T00:33:26.628Z,76.59
2024-01-09T00:38:48.697Z,76.06
2024-01-09T00:44:10.609Z,75.32
2024-01-09T00:49:32.524Z,75.60
2024-01-09T00:54:54.417Z,75.63
2024-01-09T01:00:16.876Z,75.50
2024-01-09T01:05:38.854Z,75.48
2024-01-09T01:11:00.744Z,75.03
2024-01-09T01:16:22.529Z,74.87
2024-01-09T01:21:44.262Z,74.85
2024-01-09T01:27:06.063Z,74.78
2024-01-09T01:32:28.014Z,74.62
2024-01-09T01:37:49.957Z,75.08
2024-01-09T01:43:11.857Z,75.12
2024-01-09T01:48:35.240Z,75.33
2024-01-09T01:53:57.287Z,75.33
2024-01-09T01:59:22.771Z,75.35
2024-01-09T02:04:45.555Z,75.39
2024-01-09T02:10:07.788Z,75.11
2024-01-09T02:15:29.591Z,74.47
2024-01-09T02:20:51.448Z,74.86
2024-01-09T02:26:38.891Z,74.55
2024-01-09T02:32:04.095Z,74.01
2024-01-09T02:37:26.346Z,73.97
2024-01-09T02:42:48.126Z,74.03
2024-01-09T02:48:10.125Z,74.31
2024-01-09T02:53:32.155Z,75.20
2024-01-09T02:58:55.120Z,75.20
2024-01-09T03:04:16.898Z,75.12
2024-01-09T03:09:38.763Z,74.66
2024-01-09T03:15:00.639Z,74.16
2024-01-09T03:20:22.418Z,74.85
2024-01-09T03:25:44.208Z,74.67
2024-01-09T03:31:06.025Z,74.52
2024-01-09T03:36:27.859Z,74.19
2024-01-09T03:41:49.967Z,73.54
2024-01-09T03:47:11.887Z,73.42
2024-01-09T03:52:33.682Z,72.75
2024-01-09T03:57:55.443Z,72.45
2024-01-09T04:03:17.245Z,71.39
2024-01-09T04:08:39.082Z,72.12
2024-01-09T04:14:00.931Z,72.52
2024-01-09T04:19:23.261Z,71.99
2024-01-09T04:24:45.085Z,72.56
2024-01-09T04:30:07.750Z,73.22
2024-01-09T04:35:29.645Z,72.63
2024-01-09T04:40:51.556Z,72.29
2024-01-09T04:46:13.770Z,72.16
2024-01-09T04:51:35.475Z,70.92
2024-01-09T04:56:59.508Z,70.74
2024-01-09T05:02:21.726Z,70.45
2024-01-09T05:07:43.631Z,69.71
2024-01-09T05:13:05.837Z,69.49
2024-01-09T05:18:27.806Z,69.35
2024-01-09T05:23:58.543Z,69.61
2024-01-09T05:29:20.474Z,69.24
2024-01-09T05:34:42.297Z,69.62
2024-01-09T05:40:05.184Z,69.80
2024-01-09T05:45:27.071Z,69.14
2024-01-09T05:50:48.963Z,69.47
2024-01-09T05:56:11.099Z,69.36
2024-01-09T06:01:32.874Z,69.35
2024-01-09T06:06:54.819Z,69.36
2024-01-09T06:12:17.786Z,69.25
2024-01-09T06:17:39.887Z,70.00
2024-01-09T06:23:01.910Z,69.18
2024-01-09T06:28:23.729Z,69.95
2024-01-09T06:33:45.774Z,69.43
2024-01-09T06:39:07.721Z,69.75
2024-01-09T06:44:29.518Z,69.92
2024-01-09T06:49:54.504Z,69.96
2024-01-09T06:55:16.874Z,70.30
2024-01-09T07:00:38.937Z,70.76
2024-01-09T07:06:00.958Z,70.85
2024-01-09T07:11:23.044Z,71.60
2024-01-09T07:16:44.904Z,82.81
2024-01-09T07:22:06.894Z,86.32
2024-01-09T07:27:28.770Z,76.06
2024-01-09T07:32:50.744Z,73.61
2024-01-09T07:38:12.664Z,71.63
2024-01-09T07:43:34.616Z,71.50
2024-01-09T07:48:56.655Z,70.92
2024-01-09T07:54:18.653Z,70.52
2024-01-09T07:59:44.154Z,69.27
2024-01-09T08:05:06.605Z,69.91
2024-01-09T08:10:28.689Z,69.63
2024-01-09T08:15:50.511Z,68.93
2024-01-09T08:21:13.719Z,69.21
2024-01-09T08:26:35.901Z,68.53
2024-01-09T08:31:58.638Z,67.41
2024-01-09T08:37:20.640Z,67.07
2024-01-09T08:42:42.568Z,65.05
2024-01-09T08:48:04.951Z,64.24
2024-01-09T08:53:29.660Z,63.73
2024-01-09T08:58:51.671Z,62.17
2024-01-09T09:04:13.741Z,59.95
2024-01-09T09:09:37.127Z,60.02
2024-01-09T09:14:59.080Z,59.77
2024-01-09T09:20:21.699Z,59.14
2024-01-09T09:25:43.645Z,58.71
2024-01-09T09:31:06.210Z,58.13
2024-01-09T09:36:28.489Z,58.04
2024-01-09T09:41:58.464Z,57.29
2024-01-09T09:47:22.200Z,56.74
2024-01-09T09:52:44.171Z,56.01
2024-01-09T09:58:07.268Z,55.49
2024-01-09T10:03:35.152Z,54.26
2024-01-09T10:08:58.013Z,52.84
2024-01-09T10:14:20.145Z,50.52
2024-01-09T10:19:43.865Z,47.32
2024-01-09T10:25:07.578Z,46.18
2024-01-09T10:30:29.798Z,43.95
2024-01-09T10:35:51.781Z,43.21
2024-01-09T10:41:17.325Z,41.45
2024-01-09T10:46:39.356Z,40.26
2024-01-09T10:52:01.760Z,38.73
2024-01-09T10:57:23.806Z,37.78
2024-01-09T11:02:45.764Z,36.97
2024-01-09T11:08:13.884Z,37.48
2024-01-09T11:13:40.421Z,36.55
2024-01-09T11:19:04.499Z,36.51
2024-01-09T11:24:26.860Z,35.57
2024-01-09T11:29:50.331Z,33.84
2024-01-09T11:35:24.343Z,34.21
2024-01-09T11:40:46.255Z,34.07
2024-01-09T11:46:08.089Z,34.15
2024-01-09T11:51:34.572Z,32.55
2024-01-09T11:56:56.782Z,33.39
2024-01-09T12:02:22.088Z,35.11
2024-01-09T12:07:44.734Z,32.95
2024-01-09T12:13:06.676Z,33.00
2024-01-09T12:18:28.664Z,33.23
2024-01-09T12:24:10.958Z,32.35
2024-01-09T12:29:33.486Z,32.25
2024-01-09T12:34:56.245Z,32.34
2024-01-09T12:40:19.747Z,31.84
2024-01-09T12:45:43.216Z,30.20
2024-01-09T12:51:10.076Z,30.29
2024-01-09T12:56:31.945Z,31.44
2024-01-09T13:01:55.216Z,31.64
2024-01-09T13:07:19.079Z,28.76
2024-01-09T13:12:40.901Z,28.13
2024-01-09T13:18:03.429Z,27.58
2024-01-09T13:23:47.959Z,27.79
2024-01-09T13:34:32.513Z,27.08
2024-01-09T13:39:54.451Z,27.42
2024-01-09T13:45:17.690Z,27.75
2024-01-09T13:56:05.477Z,31.26
2024-01-09T14:01:34.478Z,33.93
2024-01-09T14:07:02.102Z,35.15
2024-01-09T14:12:24.032Z,35.98
2024-01-09T14:17:46.197Z,37.44
2024-01-09T14:23:08.405Z,37.68
2024-01-09T14:28:31.189Z,38.72
2024-01-09T14:33:53.067Z,39.97
2024-01-09T14:39:17.072Z,40.32
2024-01-09T14:44:40.103Z,40.62
2024-01-09T14:50:02.036Z,40.42
2024-01-09T14:55:25.552Z,42.04
2024-01-09T15:00:48.071Z,41.98
2024-01-09T15:06:13.072Z,43.06
2024-01-09T15:11:36.069Z,43.38
2024-01-09T15:16:58.585Z,43.90
2024-01-09T15:22:20.564Z,44.48
2024-01-09T15:27:42.432Z,44.97
2024-01-09T15:33:09.048Z,45.06
2024-01-09T15:38:35.304Z,45.27
2024-01-09T15:43:57.642Z,45.12
2024-01-09T15:49:19.584Z,46.41
2024-01-09T15:54:42.703Z,47.18
2024-01-09T16:00:06.712Z,48.20
2024-01-09T16:05:29.492Z,48.50
2024-01-09T16:10:51.361Z,48.76
2024-01-09T16:16:22.573Z,49.06
2024-01-09T16:21:45.282Z,49.97
2024-01-09T16:27:07.188Z,50.78
2024-01-09T16:32:29.132Z,51.52
2024-01-09T16:37:51.212Z,52.41
2024-01-09T16:43:14.625Z,52.27
2024-01-09T16:48:41.686Z,52.66
2024-01-09T16:54:06.869Z,52.48
2024-01-09T16:59:28.820Z,53.75
2024-01-09T17:04:51.175Z,54.62
2024-01-09T17:10:13.063Z,54.98
2024-01-09T17:15:35.070Z,55.58
2024-01-09T17:20:57.348Z,56.08
2024-01-09T17:26:19.537Z,57.29
2024-01-09T17:31:41.424Z,57.58
2024-01-09T17:37:03.531Z,58.27
2024-01-09T17:42:27.889Z,58.88
2024-01-09T17:47:49.805Z,59.39
2024-01-09T17:53:11.762Z,57.75
2024-01-09T17:58:34.878Z,57.16
2024-01-09T18:03:56.959Z,57.00
2024-01-09T18:09:26.862Z,58.03
2024-01-09T18:14:48.670Z,59.10
2024-01-09T18:20:11.168Z,59.52
2024-01-09T18:25:33.114Z,59.47
2024-01-09T18:30:55.101Z,60.04
2024-01-09T18:36:17.152Z,59.64
2024-01-09T18:41:38.943Z,59.73
2024-01-09T18:47:01.283Z,59.98
2024-01-09T18:52:23.233Z,60.70
2024-01-09T18:57:45.056Z,61.86
2024-01-09T19:03:06.928Z,62.33
2024-01-09T19:08:28.795Z,62.16
2024-01-09T19:13:50.754Z,62.25
2024-01-09T19:19:14.593Z,62.17
2024-01-09T19:24:40.892Z,62.76
2024-01-09T19:30:02.744Z,63.15
2024-01-09T19:35:24.869Z,63.34
2024-01-09T19:40:46.756Z,64.49
2024-01-09T19:46:08.548Z,63.66
2024-01-09T19:51:33.058Z,63.77
2024-01-09T19:56:54.864Z,62.95
2024-01-09T20:02:19.099Z,64.24
2024-01-09T20:07:41.363Z,64.82
2024-01-09T20:13:06.480Z,65.79
2024-01-09T20:18:28.321Z,65.58
2024-01-09T20:23:50.198Z,65.85
2024-01-09T20:29:14.362Z,65.49
2024-01-09T20:34:36.927Z,66.02
2024-01-09T20:39:59.180Z,66.48
2024-01-09T20:45:22.733Z,65.22
2024-01-09T20:50:45.734Z,65.48
2024-01-09T20:56:07.940Z,65.61
2024-01-09T21:01:34.017Z,66.82
2024-01-09T21:06:55.811Z,67.23
2024-01-09T21:12:17.761Z,67.38
2024-01-09T21:17:40.671Z,66.81
2024-01-09T21:23:03.778Z,67.47
2024-01-09T21:28:25.995Z,68.48
2024-01-09T21:33:47.872Z,68.40
2024-01-09T21:39:09.799Z,68.93
2024-01-09T21:44:31.907Z,70.02
2024-01-09T21:49:53.799Z,70.60
2024-01-09T21:55:15.881Z,71.22
2024-01-09T22:00:37.800Z,71.84
2024-01-09T22:05:59.747Z,72.48
2024-01-09T22:11:21.676Z,72.87
2024-01-09T22:16:44.325Z,73.15
2024-01-09T22:22:08.177Z,73.03
2024-01-09T22:27:30.034Z,72.80
2024-01-09T22:32:51.923Z,72.33
2024-01-09T22:38:13.754Z,72.15
2024-01-09T22:43:35.613Z,71.12
2024-01-09T22:48:57.522Z,70.37
2024-01-09T22:54:19.664Z,69.95
2024-01-09T22:59:41.654Z,68.39
2024-01-09T23:05:03.733Z,67.86
2024-01-09T23:10:25.596Z,66.12
2024-01-09T23:15:47.621Z,65.58
2024-01-09T23:21:09.582Z,65.80
2024-01-09T23:26:31.370Z,64.91
2024-01-09T23:31:53.167Z,60.50
2024-01-09T23:37:15.402Z,61.69
2024-01-09T23:42:37.572Z,62.21
2024-01-09T23:47:59.402Z,62.04
2024-01-09T23:53:21.318Z,61.45
2024-01-09T23:58:43.362Z,59.59
